sensor_id;sensor_type;location;lat;lon;timestamp;P1;durP1;ratioP1;P2;durP2;ratioP2
15833;SDS011;8017;50.812;4.934;2023-03-14T00:01:14;5.40;;;1.80;;
15833;SDS011;8017;50.812;4.934;2023-03-14T00:04:19;4.20;;;1.37;;
15833;SDS011;8017;50.812;4.934;2023-03-14T00:07:21;3.77;;;1.37;;
15833;SDS011;8017;50.812;4.934;2023-03-14T00:10:25;3.70;;;1.40;;
15833;SDS011;8017;50.812;4.934;2023-03-14T00:13:26;6.20;;;1.70;;
15833;SDS011;8017;50.812;4.934;2023-03-14T00:16:28;5.03;;;1.60;;
15833;SDS011;8017;50.812;4.934;2023-03-14T00:19:32;3.87;;;1.80;;
15833;SDS011;8017;50.812;4.934;2023-03-14T00:22:34;4.97;;;1.50;;
15833;SDS011;8017;50.812;4.934;2023-03-14T00:25:35;7.87;;;2.10;;
15833;SDS011;8017;50.812;4.934;2023-03-14T00:28:37;7.33;;;1.90;;
15833;SDS011;8017;50.812;4.934;2023-03-14T00:31:40;8.07;;;1.90;;
15833;SDS011;8017;50.812;4.934;2023-03-14T00:34:43;6.60;;;1.67;;
15833;SDS011;8017;50.812;4.934;2023-03-14T00:37:45;8.57;;;2.23;;
15833;SDS011;8017;50.812;4.934;2023-03-14T00:40:47;7.63;;;2.37;;
15833;SDS011;8017;50.812;4.934;2023-03-14T00:43:49;9.17;;;2.57;;
15833;SDS011;8017;50.812;4.934;2023-03-14T00:46:51;5.33;;;1.93;;
15833;SDS011;8017;50.812;4.934;2023-03-14T00:49:55;8.07;;;2.20;;
15833;SDS011;8017;50.812;4.934;2023-03-14T00:52:57;7.80;;;1.63;;
15833;SDS011;8017;50.812;4.934;2023-03-14T00:56:01;5.37;;;1.83;;
15833;SDS011;8017;50.812;4.934;2023-03-14T00:59:04;7.90;;;1.77;;
15833;SDS011;8017;50.812;4.934;2023-03-14T01:02:06;10.90;;;2.17;;
15833;SDS011;8017;50.812;4.934;2023-03-14T01:05:09;6.83;;;1.77;;
15833;SDS011;8017;50.812;4.934;2023-03-14T01:08:11;7.60;;;2.13;;
15833;SDS011;8017;50.812;4.934;2023-03-14T01:11:14;7.30;;;2.43;;
15833;SDS011;8017;50.812;4.934;2023-03-14T01:14:17;7.00;;;2.33;;
15833;SDS011;8017;50.812;4.934;2023-03-14T01:17:19;7.43;;;1.93;;
15833;SDS011;8017;50.812;4.934;2023-03-14T01:20:22;8.47;;;2.33;;
15833;SDS011;8017;50.812;4.934;2023-03-14T01:23:24;7.67;;;2.47;;
15833;SDS011;8017;50.812;4.934;2023-03-14T01:26:27;9.20;;;2.50;;
15833;SDS011;8017;50.812;4.934;2023-03-14T01:29:30;9.23;;;2.83;;
15833;SDS011;8017;50.812;4.934;2023-03-14T01:32:32;5.77;;;2.33;;
15833;SDS011;8017;50.812;4.934;2023-03-14T01:35:36;10.23;;;2.60;;
15833;SDS011;8017;50.812;4.934;2023-03-14T01:38:38;12.13;;;2.93;;
15833;SDS011;8017;50.812;4.934;2023-03-14T01:41:41;10.83;;;2.20;;
15833;SDS011;8017;50.812;4.934;2023-03-14T01:44:49;13.77;;;3.03;;
15833;SDS011;8017;50.812;4.934;2023-03-14T01:47:52;10.37;;;3.10;;
15833;SDS011;8017;50.812;4.934;2023-03-14T01:50:55;9.57;;;2.47;;
15833;SDS011;8017;50.812;4.934;2023-03-14T01:53:59;6.60;;;2.10;;
15833;SDS011;8017;50.812;4.934;2023-03-14T01:57:08;9.83;;;2.93;;
15833;SDS011;8017;50.812;4.934;2023-03-14T02:00:17;9.90;;;2.43;;
15833;SDS011;8017;50.812;4.934;2023-03-14T02:03:21;10.83;;;2.93;;
15833;SDS011;8017;50.812;4.934;2023-03-14T02:06:26;9.03;;;2.53;;
15833;SDS011;8017;50.812;4.934;2023-03-14T02:09:35;10.97;;;2.43;;
15833;SDS011;8017;50.812;4.934;2023-03-14T02:12:37;11.60;;;2.30;;
15833;SDS011;8017;50.812;4.934;2023-03-14T02:15:41;13.37;;;2.70;;
15833;SDS011;8017;50.812;4.934;2023-03-14T02:18:43;9.10;;;2.70;;
15833;SDS011;8017;50.812;4.934;2023-03-14T02:21:47;8.83;;;2.20;;
15833;SDS011;8017;50.812;4.934;2023-03-14T02:24:57;10.37;;;1.93;;
15833;SDS011;8017;50.812;4.934;2023-03-14T02:28:06;13.03;;;2.67;;
15833;SDS011;8017;50.812;4.934;2023-03-14T02:31:09;9.57;;;2.80;;
15833;SDS011;8017;50.812;4.934;2023-03-14T02:34:12;11.47;;;3.33;;
15833;SDS011;8017;50.812;4.934;2023-03-14T02:37:14;13.47;;;3.47;;
15833;SDS011;8017;50.812;4.934;2023-03-14T02:40:17;11.77;;;2.60;;
15833;SDS011;8017;50.812;4.934;2023-03-14T02:43:20;8.93;;;2.80;;
15833;SDS011;8017;50.812;4.934;2023-03-14T02:46:22;12.77;;;2.90;;
15833;SDS011;8017;50.812;4.934;2023-03-14T02:49:24;11.93;;;2.53;;
15833;SDS011;8017;50.812;4.934;2023-03-14T02:52:29;10.90;;;2.03;;
15833;SDS011;8017;50.812;4.934;2023-03-14T02:55:31;11.17;;;2.17;;
15833;SDS011;8017;50.812;4.934;2023-03-14T02:58:34;5.87;;;1.87;;
15833;SDS011;8017;50.812;4.934;2023-03-14T03:01:37;7.90;;;2.13;;
15833;SDS011;8017;50.812;4.934;2023-03-14T03:04:39;8.50;;;2.60;;
15833;SDS011;8017;50.812;4.934;2023-03-14T03:07:41;9.60;;;2.77;;
15833;SDS011;8017;50.812;4.934;2023-03-14T03:10:43;11.93;;;3.73;;
15833;SDS011;8017;50.812;4.934;2023-03-14T03:13:46;17.33;;;4.13;;
15833;SDS011;8017;50.812;4.934;2023-03-14T03:16:48;14.13;;;4.33;;
15833;SDS011;8017;50.812;4.934;2023-03-14T03:19:50;13.37;;;4.63;;
15833;SDS011;8017;50.812;4.934;2023-03-14T03:22:52;14.00;;;4.03;;
15833;SDS011;8017;50.812;4.934;2023-03-14T03:25:54;17.63;;;5.40;;
15833;SDS011;8017;50.812;4.934;2023-03-14T03:28:57;14.07;;;5.03;;
15833;SDS011;8017;50.812;4.934;2023-03-14T03:31:59;13.93;;;4.83;;
15833;SDS011;8017;50.812;4.934;2023-03-14T03:35:01;14.43;;;4.53;;
15833;SDS011;8017;50.812;4.934;2023-03-14T03:38:03;7.73;;;3.40;;
15833;SDS011;8017;50.812;4.934;2023-03-14T03:41:06;14.37;;;4.20;;
15833;SDS011;8017;50.812;4.934;2023-03-14T03:44:09;13.77;;;3.20;;
15833;SDS011;8017;50.812;4.934;2023-03-14T03:47:12;10.87;;;3.57;;
15833;SDS011;8017;50.812;4.934;2023-03-14T03:50:14;12.50;;;3.40;;
15833;SDS011;8017;50.812;4.934;2023-03-14T03:53:16;10.50;;;2.87;;
15833;SDS011;8017;50.812;4.934;2023-03-14T03:56:18;10.60;;;3.37;;
15833;SDS011;8017;50.812;4.934;2023-03-14T03:59:22;11.77;;;3.80;;
15833;SDS011;8017;50.812;4.934;2023-03-14T04:02:24;12.00;;;3.50;;
15833;SDS011;8017;50.812;4.934;2023-03-14T04:05:26;10.40;;;2.90;;
15833;SDS011;8017;50.812;4.934;2023-03-14T04:08:28;9.33;;;2.70;;
15833;SDS011;8017;50.812;4.934;2023-03-14T04:11:30;10.03;;;2.47;;
15833;SDS011;8017;50.812;4.934;2023-03-14T04:14:34;6.43;;;2.10;;
15833;SDS011;8017;50.812;4.934;2023-03-14T04:17:35;6.00;;;2.37;;
15833;SDS011;8017;50.812;4.934;2023-03-14T04:20:37;7.70;;;2.60;;
15833;SDS011;8017;50.812;4.934;2023-03-14T04:23:39;9.60;;;2.53;;
15833;SDS011;8017;50.812;4.934;2023-03-14T04:26:41;7.33;;;2.53;;
15833;SDS011;8017;50.812;4.934;2023-03-14T04:29:44;7.37;;;2.30;;
15833;SDS011;8017;50.812;4.934;2023-03-14T04:32:46;5.00;;;1.97;;
15833;SDS011;8017;50.812;4.934;2023-03-14T04:35:49;10.03;;;2.57;;
15833;SDS011;8017;50.812;4.934;2023-03-14T04:38:54;10.67;;;2.57;;
15833;SDS011;8017;50.812;4.934;2023-03-14T04:41:56;6.13;;;2.20;;
15833;SDS011;8017;50.812;4.934;2023-03-14T04:44:59;7.63;;;2.17;;
15833;SDS011;8017;50.812;4.934;2023-03-14T04:48:01;8.00;;;2.20;;
15833;SDS011;8017;50.812;4.934;2023-03-14T04:51:03;4.50;;;1.97;;
15833;SDS011;8017;50.812;4.934;2023-03-14T04:54:05;6.03;;;1.80;;
15833;SDS011;8017;50.812;4.934;2023-03-14T04:57:08;4.90;;;1.77;;
15833;SDS011;8017;50.812;4.934;2023-03-14T05:00:12;4.63;;;1.90;;
15833;SDS011;8017;50.812;4.934;2023-03-14T05:03:14;6.87;;;1.80;;
15833;SDS011;8017;50.812;4.934;2023-03-14T05:06:16;7.77;;;2.13;;
15833;SDS011;8017;50.812;4.934;2023-03-14T05:09:18;4.13;;;1.73;;
15833;SDS011;8017;50.812;4.934;2023-03-14T05:12:20;2.50;;;1.13;;
15833;SDS011;8017;50.812;4.934;2023-03-14T05:15:24;4.70;;;1.33;;
15833;SDS011;8017;50.812;4.934;2023-03-14T05:18:26;3.33;;;1.70;;
15833;SDS011;8017;50.812;4.934;2023-03-14T05:21:28;3.47;;;1.80;;
15833;SDS011;8017;50.812;4.934;2023-03-14T05:24:30;3.20;;;1.53;;
15833;SDS011;8017;50.812;4.934;2023-03-14T05:27:32;2.53;;;1.50;;
15833;SDS011;8017;50.812;4.934;2023-03-14T05:30:35;2.60;;;1.93;;
15833;SDS011;8017;50.812;4.934;2023-03-14T05:33:37;2.73;;;1.73;;
15833;SDS011;8017;50.812;4.934;2023-03-14T05:36:39;5.17;;;1.93;;
15833;SDS011;8017;50.812;4.934;2023-03-14T05:39:41;4.20;;;1.93;;
15833;SDS011;8017;50.812;4.934;2023-03-14T05:42:43;4.13;;;2.07;;
15833;SDS011;8017;50.812;4.934;2023-03-14T05:45:46;4.60;;;2.33;;
15833;SDS011;8017;50.812;4.934;2023-03-14T05:48:48;4.77;;;2.13;;
15833;SDS011;8017;50.812;4.934;2023-03-14T05:51:50;6.40;;;2.40;;
15833;SDS011;8017;50.812;4.934;2023-03-14T05:54:52;4.77;;;2.50;;
15833;SDS011;8017;50.812;4.934;2023-03-14T05:57:54;2.63;;;2.20;;
15833;SDS011;8017;50.812;4.934;2023-03-14T06:00:57;6.07;;;2.60;;
15833;SDS011;8017;50.812;4.934;2023-03-14T06:04:03;5.77;;;2.33;;
15833;SDS011;8017;50.812;4.934;2023-03-14T06:07:05;5.00;;;2.03;;
15833;SDS011;8017;50.812;4.934;2023-03-14T06:10:07;3.70;;;2.27;;
15833;SDS011;8017;50.812;4.934;2023-03-14T06:13:10;3.97;;;2.20;;
15833;SDS011;8017;50.812;4.934;2023-03-14T06:16:13;1.83;;;1.73;;
15833;SDS011;8017;50.812;4.934;2023-03-14T06:19:15;7.07;;;2.33;;
15833;SDS011;8017;50.812;4.934;2023-03-14T06:22:17;3.57;;;2.20;;
15833;SDS011;8017;50.812;4.934;2023-03-14T06:25:20;4.30;;;1.87;;
15833;SDS011;8017;50.812;4.934;2023-03-14T06:28:22;3.07;;;1.60;;
15833;SDS011;8017;50.812;4.934;2023-03-14T06:31:25;2.03;;;1.50;;
15833;SDS011;8017;50.812;4.934;2023-03-14T06:34:27;2.57;;;1.80;;
15833;SDS011;8017;50.812;4.934;2023-03-14T06:37:29;3.43;;;1.97;;
15833;SDS011;8017;50.812;4.934;2023-03-14T06:40:31;3.33;;;2.03;;
15833;SDS011;8017;50.812;4.934;2023-03-14T06:43:33;2.23;;;1.63;;
15833;SDS011;8017;50.812;4.934;2023-03-14T06:46:37;5.23;;;2.17;;
15833;SDS011;8017;50.812;4.934;2023-03-14T06:49:39;6.60;;;2.50;;
15833;SDS011;8017;50.812;4.934;2023-03-14T06:52:41;3.77;;;2.37;;
15833;SDS011;8017;50.812;4.934;2023-03-14T06:55:47;3.37;;;2.30;;
15833;SDS011;8017;50.812;4.934;2023-03-14T06:58:49;6.63;;;2.63;;
15833;SDS011;8017;50.812;4.934;2023-03-14T07:01:53;6.73;;;2.50;;
15833;SDS011;8017;50.812;4.934;2023-03-14T07:04:54;6.07;;;2.70;;
15833;SDS011;8017;50.812;4.934;2023-03-14T07:07:56;3.57;;;2.67;;
15833;SDS011;8017;50.812;4.934;2023-03-14T07:10:58;5.30;;;2.20;;
15833;SDS011;8017;50.812;4.934;2023-03-14T07:14:00;5.30;;;2.27;;
15833;SDS011;8017;50.812;4.934;2023-03-14T07:17:04;5.97;;;2.70;;
15833;SDS011;8017;50.812;4.934;2023-03-14T07:20:06;3.87;;;3.00;;
15833;SDS011;8017;50.812;4.934;2023-03-14T07:23:10;5.60;;;2.67;;
15833;SDS011;8017;50.812;4.934;2023-03-14T07:26:12;3.97;;;2.60;;
15833;SDS011;8017;50.812;4.934;2023-03-14T07:29:13;4.30;;;3.07;;
15833;SDS011;8017;50.812;4.934;2023-03-14T07:32:17;3.47;;;1.87;;
15833;SDS011;8017;50.812;4.934;2023-03-14T07:35:19;1.40;;;0.90;;
15833;SDS011;8017;50.812;4.934;2023-03-14T07:38:21;3.83;;;1.00;;
15833;SDS011;8017;50.812;4.934;2023-03-14T07:41:23;4.40;;;1.37;;
15833;SDS011;8017;50.812;4.934;2023-03-14T07:44:25;1.77;;;0.90;;
15833;SDS011;8017;50.812;4.934;2023-03-14T07:47:29;2.00;;;0.90;;
15833;SDS011;8017;50.812;4.934;2023-03-14T07:50:30;2.83;;;1.40;;
15833;SDS011;8017;50.812;4.934;2023-03-14T07:53:32;3.17;;;1.00;;
15833;SDS011;8017;50.812;4.934;2023-03-14T07:56:34;6.67;;;1.30;;
15833;SDS011;8017;50.812;4.934;2023-03-14T07:59:36;2.83;;;1.10;;
15833;SDS011;8017;50.812;4.934;2023-03-14T08:02:40;2.43;;;1.47;;
15833;SDS011;8017;50.812;4.934;2023-03-14T08:05:41;3.00;;;1.70;;
15833;SDS011;8017;50.812;4.934;2023-03-14T08:08:44;5.43;;;2.07;;
15833;SDS011;8017;50.812;4.934;2023-03-14T08:11:46;3.17;;;1.50;;
15833;SDS011;8017;50.812;4.934;2023-03-14T08:14:48;3.47;;;1.40;;
15833;SDS011;8017;50.812;4.934;2023-03-14T08:17:52;3.90;;;1.33;;
15833;SDS011;8017;50.812;4.934;2023-03-14T08:20:54;2.70;;;1.50;;
15833;SDS011;8017;50.812;4.934;2023-03-14T08:23:56;3.53;;;1.63;;
15833;SDS011;8017;50.812;4.934;2023-03-14T08:26:58;5.70;;;1.77;;
15833;SDS011;8017;50.812;4.934;2023-03-14T08:30:00;4.17;;;2.00;;
15833;SDS011;8017;50.812;4.934;2023-03-14T08:33:03;6.73;;;2.47;;
15833;SDS011;8017;50.812;4.934;2023-03-14T08:36:05;5.27;;;2.47;;
15833;SDS011;8017;50.812;4.934;2023-03-14T08:39:08;5.13;;;2.40;;
15833;SDS011;8017;50.812;4.934;2023-03-14T08:42:10;7.57;;;3.40;;
15833;SDS011;8017;50.812;4.934;2023-03-14T08:45:13;3.97;;;3.53;;
15833;SDS011;8017;50.812;4.934;2023-03-14T08:48:17;5.23;;;3.90;;
15833;SDS011;8017;50.812;4.934;2023-03-14T08:51:19;6.47;;;3.60;;
15833;SDS011;8017;50.812;4.934;2023-03-14T08:54:21;9.13;;;3.90;;
15833;SDS011;8017;50.812;4.934;2023-03-14T08:57:24;5.67;;;3.37;;
15833;SDS011;8017;50.812;4.934;2023-03-14T09:00:27;5.43;;;3.43;;
15833;SDS011;8017;50.812;4.934;2023-03-14T09:03:30;5.17;;;2.90;;
15833;SDS011;8017;50.812;4.934;2023-03-14T09:06:32;6.97;;;2.90;;
15833;SDS011;8017;50.812;4.934;2023-03-14T09:09:34;7.67;;;3.60;;
15833;SDS011;8017;50.812;4.934;2023-03-14T09:12:36;6.90;;;3.63;;
15833;SDS011;8017;50.812;4.934;2023-03-14T09:15:38;6.37;;;3.27;;
15833;SDS011;8017;50.812;4.934;2023-03-14T09:18:43;5.33;;;3.10;;
15833;SDS011;8017;50.812;4.934;2023-03-14T09:21:45;5.67;;;2.90;;
15833;SDS011;8017;50.812;4.934;2023-03-14T09:24:47;4.83;;;2.60;;
15833;SDS011;8017;50.812;4.934;2023-03-14T09:27:49;4.70;;;3.03;;
15833;SDS011;8017;50.812;4.934;2023-03-14T09:30:51;6.07;;;4.07;;
15833;SDS011;8017;50.812;4.934;2023-03-14T09:33:55;6.67;;;3.10;;
15833;SDS011;8017;50.812;4.934;2023-03-14T09:36:57;5.63;;;3.10;;
15833;SDS011;8017;50.812;4.934;2023-03-14T09:40:00;4.90;;;3.67;;
15833;SDS011;8017;50.812;4.934;2023-03-14T09:43:09;3.43;;;2.63;;
15833;SDS011;8017;50.812;4.934;2023-03-14T09:46:14;5.83;;;2.60;;
15833;SDS011;8017;50.812;4.934;2023-03-14T09:49:19;4.80;;;2.90;;
15833;SDS011;8017;50.812;4.934;2023-03-14T09:52:26;3.40;;;2.63;;
15833;SDS011;8017;50.812;4.934;2023-03-14T09:55:32;4.90;;;3.07;;
15833;SDS011;8017;50.812;4.934;2023-03-14T09:58:34;4.30;;;2.90;;
15833;SDS011;8017;50.812;4.934;2023-03-14T10:01:37;4.07;;;2.80;;
15833;SDS011;8017;50.812;4.934;2023-03-14T10:04:41;4.77;;;3.23;;
15833;SDS011;8017;50.812;4.934;2023-03-14T10:07:45;3.47;;;2.80;;
15833;SDS011;8017;50.812;4.934;2023-03-14T10:10:47;3.67;;;3.30;;
15833;SDS011;8017;50.812;4.934;2023-03-14T10:14:03;5.00;;;3.07;;
15833;SDS011;8017;50.812;4.934;2023-03-14T10:17:07;4.77;;;2.80;;
15833;SDS011;8017;50.812;4.934;2023-03-14T10:23:33;8.13;;;3.40;;
15833;SDS011;8017;50.812;4.934;2023-03-14T10:26:36;5.80;;;3.20;;
15833;SDS011;8017;50.812;4.934;2023-03-14T10:29:50;5.97;;;3.03;;
15833;SDS011;8017;50.812;4.934;2023-03-14T10:32:54;6.90;;;2.70;;
15833;SDS011;8017;50.812;4.934;2023-03-14T10:35:58;10.17;;;3.97;;
15833;SDS011;8017;50.812;4.934;2023-03-14T10:39:16;13.67;;;3.60;;
15833;SDS011;8017;50.812;4.934;2023-03-14T10:42:27;9.33;;;3.33;;
15833;SDS011;8017;50.812;4.934;2023-03-14T10:45:32;7.63;;;3.30;;
15833;SDS011;8017;50.812;4.934;2023-03-14T10:48:37;6.97;;;3.10;;
15833;SDS011;8017;50.812;4.934;2023-03-14T10:51:43;7.73;;;3.10;;
15833;SDS011;8017;50.812;4.934;2023-03-14T10:54:47;9.27;;;3.17;;
15833;SDS011;8017;50.812;4.934;2023-03-14T10:57:49;7.87;;;2.80;;
15833;SDS011;8017;50.812;4.934;2023-03-14T11:00:54;7.70;;;3.10;;
15833;SDS011;8017;50.812;4.934;2023-03-14T11:04:04;8.50;;;3.17;;
15833;SDS011;8017;50.812;4.934;2023-03-14T11:07:16;6.53;;;2.23;;
15833;SDS011;8017;50.812;4.934;2023-03-14T11:10:25;3.63;;;1.80;;
15833;SDS011;8017;50.812;4.934;2023-03-14T11:13:33;5.07;;;2.47;;
15833;SDS011;8017;50.812;4.934;2023-03-14T11:16:44;4.33;;;1.67;;
15833;SDS011;8017;50.812;4.934;2023-03-14T11:19:55;3.73;;;1.70;;
15833;SDS011;8017;50.812;4.934;2023-03-14T11:23:07;3.43;;;1.73;;
15833;SDS011;8017;50.812;4.934;2023-03-14T11:26:18;2.97;;;1.23;;
15833;SDS011;8017;50.812;4.934;2023-03-14T11:29:28;2.90;;;1.20;;
15833;SDS011;8017;50.812;4.934;2023-03-14T11:32:41;5.63;;;1.90;;
15833;SDS011;8017;50.812;4.934;2023-03-14T11:35:47;2.90;;;1.47;;
15833;SDS011;8017;50.812;4.934;2023-03-14T11:38:56;3.07;;;1.50;;
15833;SDS011;8017;50.812;4.934;2023-03-14T11:42:00;3.57;;;1.23;;
15833;SDS011;8017;50.812;4.934;2023-03-14T11:45:03;2.57;;;1.27;;
15833;SDS011;8017;50.812;4.934;2023-03-14T11:48:13;2.10;;;1.00;;
15833;SDS011;8017;50.812;4.934;2023-03-14T11:51:20;3.37;;;1.47;;
15833;SDS011;8017;50.812;4.934;2023-03-14T11:54:28;2.63;;;1.20;;
15833;SDS011;8017;50.812;4.934;2023-03-14T11:57:35;4.00;;;1.40;;
15833;SDS011;8017;50.812;4.934;2023-03-14T12:00:38;2.90;;;1.10;;
15833;SDS011;8017;50.812;4.934;2023-03-14T12:03:42;2.60;;;1.10;;
15833;SDS011;8017;50.812;4.934;2023-03-14T12:06:55;1.03;;;0.80;;
15833;SDS011;8017;50.812;4.934;2023-03-14T12:10:01;2.20;;;1.03;;
15833;SDS011;8017;50.812;4.934;2023-03-14T12:13:04;1.80;;;1.00;;
15833;SDS011;8017;50.812;4.934;2023-03-14T12:19:34;1.30;;;1.20;;
15833;SDS011;8017;50.812;4.934;2023-03-14T12:22:41;2.20;;;1.20;;
15833;SDS011;8017;50.812;4.934;2023-03-14T12:25:45;3.50;;;1.10;;
15833;SDS011;8017;50.812;4.934;2023-03-14T12:28:49;2.80;;;1.10;;
15833;SDS011;8017;50.812;4.934;2023-03-14T12:32:08;1.83;;;0.93;;
15833;SDS011;8017;50.812;4.934;2023-03-14T12:35:35;1.30;;;0.90;;
15833;SDS011;8017;50.812;4.934;2023-03-14T12:38:43;0.60;;;0.50;;
15833;SDS011;8017;50.812;4.934;2023-03-14T12:42:00;1.90;;;0.60;;
15833;SDS011;8017;50.812;4.934;2023-03-14T12:45:13;0.83;;;0.70;;
15833;SDS011;8017;50.812;4.934;2023-03-14T12:48:26;1.00;;;0.60;;
15833;SDS011;8017;50.812;4.934;2023-03-14T12:51:29;0.40;;;0.40;;
15833;SDS011;8017;50.812;4.934;2023-03-14T12:54:39;1.53;;;0.70;;
15833;SDS011;8017;50.812;4.934;2023-03-14T12:57:55;1.13;;;0.83;;
15833;SDS011;8017;50.812;4.934;2023-03-14T13:01:04;1.00;;;0.60;;
15833;SDS011;8017;50.812;4.934;2023-03-14T13:04:13;1.50;;;0.73;;
15833;SDS011;8017;50.812;4.934;2023-03-14T13:07:29;2.80;;;1.00;;
15833;SDS011;8017;50.812;4.934;2023-03-14T13:10:45;3.63;;;1.57;;
15833;SDS011;8017;50.812;4.934;2023-03-14T13:13:56;2.50;;;1.40;;
15833;SDS011;8017;50.812;4.934;2023-03-14T13:17:02;4.00;;;1.20;;
15833;SDS011;8017;50.812;4.934;2023-03-14T13:20:09;6.20;;;1.83;;
15833;SDS011;8017;50.812;4.934;2023-03-14T13:23:19;6.07;;;1.27;;
15833;SDS011;8017;50.812;4.934;2023-03-14T13:26:25;5.20;;;1.50;;
15833;SDS011;8017;50.812;4.934;2023-03-14T13:29:35;7.53;;;1.57;;
15833;SDS011;8017;50.812;4.934;2023-03-14T13:32:39;4.20;;;1.30;;
15833;SDS011;8017;50.812;4.934;2023-03-14T13:35:43;6.63;;;1.60;;
15833;SDS011;8017;50.812;4.934;2023-03-14T13:38:46;3.07;;;1.20;;
15833;SDS011;8017;50.812;4.934;2023-03-14T13:41:58;3.00;;;1.30;;
15833;SDS011;8017;50.812;4.934;2023-03-14T13:45:11;4.33;;;1.80;;
15833;SDS011;8017;50.812;4.934;2023-03-14T13:48:14;2.70;;;2.10;;
15833;SDS011;8017;50.812;4.934;2023-03-14T13:51:17;6.80;;;1.70;;
15833;SDS011;8017;50.812;4.934;2023-03-14T13:54:21;4.53;;;1.57;;
15833;SDS011;8017;50.812;4.934;2023-03-14T14:00:55;15.30;;;3.17;;
15833;SDS011;8017;50.812;4.934;2023-03-14T14:04:02;14.57;;;3.10;;
15833;SDS011;8017;50.812;4.934;2023-03-14T14:07:09;11.47;;;2.33;;
15833;SDS011;8017;50.812;4.934;2023-03-14T14:10:18;10.60;;;2.53;;
15833;SDS011;8017;50.812;4.934;2023-03-14T14:13:21;14.43;;;3.27;;
15833;SDS011;8017;50.812;4.934;2023-03-14T14:16:29;19.83;;;2.90;;
15833;SDS011;8017;50.812;4.934;2023-03-14T14:19:35;11.47;;;2.97;;
15833;SDS011;8017;50.812;4.934;2023-03-14T14:22:39;16.13;;;3.07;;
15833;SDS011;8017;50.812;4.934;2023-03-14T14:25:43;10.77;;;2.77;;
15833;SDS011;8017;50.812;4.934;2023-03-14T14:28:46;11.37;;;2.87;;
15833;SDS011;8017;50.812;4.934;2023-03-14T14:32:03;11.70;;;3.40;;
15833;SDS011;8017;50.812;4.934;2023-03-14T14:35:21;12.90;;;2.90;;
15833;SDS011;8017;50.812;4.934;2023-03-14T14:38:25;10.20;;;2.50;;
15833;SDS011;8017;50.812;4.934;2023-03-14T14:41:31;9.73;;;2.13;;
15833;SDS011;8017;50.812;4.934;2023-03-14T14:44:36;14.53;;;2.03;;
15833;SDS011;8017;50.812;4.934;2023-03-14T14:47:49;12.63;;;3.13;;
15833;SDS011;8017;50.812;4.934;2023-03-14T14:50:56;7.30;;;2.63;;
15833;SDS011;8017;50.812;4.934;2023-03-14T14:54:04;12.27;;;3.07;;
15833;SDS011;8017;50.812;4.934;2023-03-14T14:57:16;13.27;;;2.43;;
15833;SDS011;8017;50.812;4.934;2023-03-14T15:00:20;10.17;;;2.57;;
15833;SDS011;8017;50.812;4.934;2023-03-14T15:03:27;13.13;;;2.40;;
15833;SDS011;8017;50.812;4.934;2023-03-14T15:06:31;10.00;;;2.70;;
15833;SDS011;8017;50.812;4.934;2023-03-14T15:09:33;12.23;;;2.73;;
15833;SDS011;8017;50.812;4.934;2023-03-14T15:12:35;13.97;;;3.07;;
15833;SDS011;8017;50.812;4.934;2023-03-14T15:15:37;16.00;;;3.53;;
15833;SDS011;8017;50.812;4.934;2023-03-14T15:18:40;13.80;;;3.80;;
15833;SDS011;8017;50.812;4.934;2023-03-14T15:21:43;10.77;;;2.97;;
15833;SDS011;8017;50.812;4.934;2023-03-14T15:24:45;12.47;;;2.73;;
15833;SDS011;8017;50.812;4.934;2023-03-14T15:27:47;8.30;;;2.40;;
15833;SDS011;8017;50.812;4.934;2023-03-14T15:30:49;7.50;;;2.20;;
15833;SDS011;8017;50.812;4.934;2023-03-14T15:33:54;7.80;;;1.70;;
15833;SDS011;8017;50.812;4.934;2023-03-14T15:36:56;8.43;;;1.20;;
15833;SDS011;8017;50.812;4.934;2023-03-14T15:39:58;7.87;;;2.00;;
15833;SDS011;8017;50.812;4.934;2023-03-14T15:42:59;8.60;;;1.70;;
15833;SDS011;8017;50.812;4.934;2023-03-14T15:46:02;9.43;;;1.67;;
15833;SDS011;8017;50.812;4.934;2023-03-14T15:49:08;6.90;;;2.30;;
15833;SDS011;8017;50.812;4.934;2023-03-14T15:52:10;10.00;;;1.80;;
15833;SDS011;8017;50.812;4.934;2023-03-14T15:55:12;6.57;;;1.67;;
15833;SDS011;8017;50.812;4.934;2023-03-14T15:58:15;11.30;;;1.77;;
15833;SDS011;8017;50.812;4.934;2023-03-14T16:01:18;8.13;;;1.97;;
15833;SDS011;8017;50.812;4.934;2023-03-14T16:04:22;7.20;;;2.00;;
15833;SDS011;8017;50.812;4.934;2023-03-14T16:07:24;9.53;;;2.13;;
15833;SDS011;8017;50.812;4.934;2023-03-14T16:10:27;7.37;;;2.07;;
15833;SDS011;8017;50.812;4.934;2023-03-14T16:13:29;6.87;;;2.07;;
15833;SDS011;8017;50.812;4.934;2023-03-14T16:16:31;8.40;;;2.33;;
15833;SDS011;8017;50.812;4.934;2023-03-14T16:19:34;8.03;;;2.10;;
15833;SDS011;8017;50.812;4.934;2023-03-14T16:22:37;11.20;;;2.03;;
15833;SDS011;8017;50.812;4.934;2023-03-14T16:25:39;8.13;;;2.17;;
15833;SDS011;8017;50.812;4.934;2023-03-14T16:28:41;6.77;;;2.20;;
15833;SDS011;8017;50.812;4.934;2023-03-14T16:31:44;6.03;;;2.17;;
15833;SDS011;8017;50.812;4.934;2023-03-14T16:34:47;6.60;;;2.10;;
15833;SDS011;8017;50.812;4.934;2023-03-14T16:37:49;7.43;;;2.10;;
15833;SDS011;8017;50.812;4.934;2023-03-14T16:40:54;6.03;;;2.33;;
15833;SDS011;8017;50.812;4.934;2023-03-14T16:43:58;6.60;;;2.03;;
15833;SDS011;8017;50.812;4.934;2023-03-14T16:47:00;5.63;;;2.20;;
15833;SDS011;8017;50.812;4.934;2023-03-14T16:50:04;8.97;;;2.30;;
15833;SDS011;8017;50.812;4.934;2023-03-14T16:53:07;5.97;;;1.90;;
15833;SDS011;8017;50.812;4.934;2023-03-14T16:56:09;9.07;;;1.77;;
15833;SDS011;8017;50.812;4.934;2023-03-14T16:59:11;6.67;;;1.80;;
15833;SDS011;8017;50.812;4.934;2023-03-14T17:02:13;7.63;;;1.97;;
15833;SDS011;8017;50.812;4.934;2023-03-14T17:05:16;8.57;;;2.13;;
15833;SDS011;8017;50.812;4.934;2023-03-14T17:08:19;7.00;;;2.50;;
15833;SDS011;8017;50.812;4.934;2023-03-14T17:11:21;8.17;;;2.27;;
15833;SDS011;8017;50.812;4.934;2023-03-14T17:14:23;5.50;;;1.90;;
15833;SDS011;8017;50.812;4.934;2023-03-14T17:17:25;7.47;;;2.37;;
15833;SDS011;8017;50.812;4.934;2023-03-14T17:20:30;9.03;;;2.67;;
15833;SDS011;8017;50.812;4.934;2023-03-14T17:23:32;7.27;;;2.40;;
15833;SDS011;8017;50.812;4.934;2023-03-14T17:26:35;7.43;;;2.30;;
15833;SDS011;8017;50.812;4.934;2023-03-14T17:29:37;9.30;;;2.20;;
15833;SDS011;8017;50.812;4.934;2023-03-14T17:32:39;7.77;;;2.40;;
15833;SDS011;8017;50.812;4.934;2023-03-14T17:35:42;9.77;;;2.63;;
15833;SDS011;8017;50.812;4.934;2023-03-14T17:38:44;7.50;;;2.20;;
15833;SDS011;8017;50.812;4.934;2023-03-14T17:41:46;11.90;;;2.13;;
15833;SDS011;8017;50.812;4.934;2023-03-14T17:44:48;7.67;;;2.03;;
15833;SDS011;8017;50.812;4.934;2023-03-14T17:47:50;7.53;;;2.43;;
15833;SDS011;8017;50.812;4.934;2023-03-14T17:50:54;13.03;;;2.70;;
15833;SDS011;8017;50.812;4.934;2023-03-14T17:53:56;9.03;;;2.87;;
15833;SDS011;8017;50.812;4.934;2023-03-14T17:56:58;11.57;;;2.80;;
15833;SDS011;8017;50.812;4.934;2023-03-14T18:00:00;10.70;;;2.93;;
15833;SDS011;8017;50.812;4.934;2023-03-14T18:03:02;10.93;;;2.43;;
15833;SDS011;8017;50.812;4.934;2023-03-14T18:06:06;9.20;;;2.47;;
15833;SDS011;8017;50.812;4.934;2023-03-14T18:09:09;10.17;;;3.10;;
15833;SDS011;8017;50.812;4.934;2023-03-14T18:12:11;10.43;;;3.30;;
15833;SDS011;8017;50.812;4.934;2023-03-14T18:15:13;12.37;;;3.40;;
15833;SDS011;8017;50.812;4.934;2023-03-14T18:18:15;9.20;;;3.17;;
15833;SDS011;8017;50.812;4.934;2023-03-14T18:21:19;7.37;;;2.63;;
15833;SDS011;8017;50.812;4.934;2023-03-14T18:24:21;10.53;;;3.07;;
15833;SDS011;8017;50.812;4.934;2023-03-14T18:27:23;7.97;;;3.10;;
15833;SDS011;8017;50.812;4.934;2023-03-14T18:30:25;10.40;;;3.90;;
15833;SDS011;8017;50.812;4.934;2023-03-14T18:33:26;6.60;;;2.40;;
15833;SDS011;8017;50.812;4.934;2023-03-14T18:36:30;10.27;;;2.83;;
15833;SDS011;8017;50.812;4.934;2023-03-14T18:39:32;19.30;;;3.43;;
15833;SDS011;8017;50.812;4.934;2023-03-14T18:42:34;9.33;;;3.30;;
15833;SDS011;8017;50.812;4.934;2023-03-14T18:45:36;6.67;;;3.23;;
15833;SDS011;8017;50.812;4.934;2023-03-14T18:48:38;8.93;;;3.40;;
15833;SDS011;8017;50.812;4.934;2023-03-14T18:51:43;7.37;;;3.87;;